Larissa , Thessalia , Greece
39° 38' 00"N, 22° 25' 00"E, Elevation 263 ft.
Χειμερινή Time

Hourly observations for the last 48 hours

Date

Time

Temperature (°C) Humi-
dity
(%)
Wind
(kmph)
Pressure Rain (mm) Sun
(W/m2)
UV ET
(mm)
Air Dew 6 Hour 1 Hr 3 Hr 6 Hr Day
Alt
(in)
Sea
Level
(mb)
Max Min
28 06:00 23.9 19.9 78 ENE 2 G 4 29.74 1007.0 0.00 0 0.0 0.229
28 05:00 25.1 19.9 73 ENE 1 G 4 29.73 1006.9 0.00 0 0.0 0.229
28 04:00 25.9 18.8 65 Calm 29.74 1007.0 0.00 0 0.0 0.203
28 03:00 26.6 18.7 30.9 26.3 62 Calm 29.75 1007.5 0.00 0 0.0 0.102
28 02:00 26.4 18.8 63 Calm 29.75 1007.4 0.00 0 0.0 0.051
28 01:00 26.6 19.7 66 ENE 2 G 4 29.75 1007.4 0.00 0 0.0 0.000
28 00:00 26.9 19.6 64 NNE 2 G 4 29.75 1007.3 0.00 0 0.0 5.639
27 23:00 27.3 19.4 62 ENE 5 G 11 29.73 1006.9 0.00 0 0.0 5.588
27 22:00 28.6 19.2 57 ENE 5 G 9 29.72 1006.4 0.00 0 0.0 5.537
27 21:00 30.9 18.9 36.9 30.9 49 E 6 G 16 29.70 1006.0 0.00 0 0.0 5.436
27 20:00 32.8 18.6 43 ENE 8 G 17 29.70 1005.8 0.00 97 0.0 5.232
27 19:00 34.6 18.2 38 ENE 6 G 20 29.69 1005.5 0.00 281 0.0 4.902
27 18:00 35.7 17.0 33 ENE 7 G 20 29.69 1005.5 0.00 470 0.0 4.902
27 17:00 36.7 16.8 31 ENE 7 G 16 29.70 1005.9 0.00 635 0.0 4.470
27 16:00 36.2 16.4 31 ENE 8 G 19 29.72 1006.4 0.00 184 0.0 3.988
27 15:00 36.3 14.9 36.3 27.2 28 NW 2 G 8 29.73 1006.7 0.00 884 0.0 3.480
27 14:00 34.9 15.3 31 SSW 3 G 9 29.75 1007.3 0.00 913 0.0 2.896
27 13:00 33.7 15.2 33 NNW 3 G 6 29.77 1008.1 0.00 916 0.0 2.286
27 12:00 32.5 16.0 37 E 3 G 8 29.78 1008.6 0.00 857 0.0 1.727
27 11:00 30.7 18.1 47 SW 1 G 6 29.80 1009.1 0.00 754 0.0 1.219
27 10:00 28.9 17.8 51 N 4 G 6 29.80 1009.1 0.00 607 0.0 0.813
27 09:00 27.3 18.0 27.3 23.3 57 E 2 G 4 29.80 1009.3 0.00 434 0.0 0.508
27 08:00 25.7 19.6 69 E 2 G 4 29.80 1009.0 0.00 253 0.0 0.305
27 07:00 23.9 19.2 75 Calm 29.78 1008.4 0.00 84 0.0 0.203
27 06:00 24.1 19.4 75 ENE 1 G 3 29.76 1008.0 0.00 0 0.0 0.178
27 05:00 24.7 18.7 69 E 0 G 1 29.77 1008.1 0.00 0 0.0 0.178
27 04:00 24.7 19.8 74 SE 0 G 4 29.77 1008.0 0.00 0 0.0 0.152
27 03:00 25.3 20.1 30.3 25.3 73 ENE 1 G 4 29.77 1008.1 0.00 0 0.0 0.127
27 02:00 25.6 18.1 63 NE 3 G 6 29.77 1008.2 0.00 0 0.0 0.102
27 01:00 25.5 17.7 62 N 2 G 6 29.78 1008.6 0.00 0 0.0 0.051
27 00:00 27.3 16.0 50 Calm 29.76 1007.8 0.00 0 0.0 0.000
26 23:00 27.7 16.9 52 NE 1 G 4 29.75 1007.6 0.00 0 0.0 5.283
26 22:00 28.8 15.0 43 NE 4 G 8 29.75 1007.4 0.00 0 0.0 5.207
26 21:00 30.3 13.6 36.7 30.2 36 ESE 5 G 12 29.72 1006.5 0.00 0 0.0 5.156
26 20:00 31.3 14.9 37 E 7 G 16 29.72 1006.6 0.00 34 0.0 5.055
26 19:00 31.8 15.8 38 NE 6 G 17 29.72 1006.5 0.00 145 0.0 4.902
26 18:00 32.9 15.0 34 ESE 4 G 11 29.71 1006.0 0.00 275 0.0 4.699
26 17:00 34.7 16.1 33 NE 7 G 20 29.72 1006.3 0.00 248 0.0 4.496
26 16:00 35.7 15.5 30 NE 7 G 17 29.71 1006.1 0.00 306 0.0 4.089
26 15:00 36.3 16.0 36.3 27.3 30 ENE 2 G 16 29.72 1006.5 0.00 880 0.0 3.632
26 14:00 34.4 14.4 30 SW 4 G 6 29.74 1007.1 0.00 916 0.0 3.048
26 13:00 33.6 13.7 30 N 4 G 11 29.76 1007.7 0.00 902 0.0 2.464
26 12:00 33.0 14.1 32 ESE 4 G 8 29.77 1008.1 0.00 848 0.0 1.905
26 11:00 31.0 15.0 38 SSE 4 G 8 29.78 1008.5 0.00 751 0.0 1.397
26 10:00 29.2 15.3 43 NE 1 G 9 29.78 1008.6 0.00 607 0.0 0.991
26 09:00 27.3 15.4 27.3 24.1 48 E 4 G 8 29.79 1009.0 0.00 439 0.0 0.686
26 08:00 25.7 15.7 54 Calm 29.79 1008.9 0.00 257 0.0 0.483
26 07:00 25.2 15.8 56 Calm 29.79 1008.7 0.00 91 0.0 0.381

Data generated by WxSolution Version 1.8.4.2, Build 2009.03.29.